Airfield :
LOGIN :

Register | Disclaimer

   EN    FR    IT 

 










Legend :    VFR   Marginal VFR   IFR   Intensive IFR   Very Intensive IFR
Visi :
Ceiling :
>= 8 km
>= 3000ft
5 to 8 km
1000 to 3000 ft
1500m to 5 km
500 to 1000 ft
800 to 1500m
200 to 500 ft
< 800m
< 200 ft
Symbols :   Thunderstorms  Fog  Heavy snow  Heavy precipitations  Wind > 20 kt
SIGMETs :     Misc.  Thunderstorms  Icing  Turbulence  Mountain Waves  Volcanic Ashes






- Airport Elevation : 154 ft
- IATA code : SZZ


EPSC - Szczecin Goleniow

CURRENT METAR :
  • 310700Z 35009KT 320V030 9999 FEW019 15/09 Q1021

EXPIRED METARs :
  • 310630Z 35011KT 9999 SCT017 14/09 Q1021
  • 310600Z 35012KT 320V020 9999 FEW016 13/08 Q1021
  • 310530Z 34010KT 310V020 9999 FEW015 13/09 Q1021
  • 310500Z 36009KT 9999 FEW016 12/08 Q1021
  • 310430Z 35008KT 320V020 CAVOK 11/08 Q1021

TAF TAF EPSC
Valid from the 31 at 06:00 until the 01 at 06:00 UTC


310530Z 3106/0106 01012KT CAVOK
TEMPO 3108/3118 03018G32KT



MET'MAP, your aeronautical weather chart ! - Copyright ORBIFLY December 2007 - Disclaimer

ORBIFLY MET'MAP TEAM :

Programming & Development : Alexandra Zaïnal
Concept & original design : Baudouin d'Aumeries
Assistance for programming : Marc-Olivier Méhu
Technical & hardware support : Manuel Goepfert

Contact : metmap@orbifly.com




SOURCES & CREDITS :

   NOAA